sensor_id;sensor_type;location;lat;lon;timestamp;pressure;altitude;pressure_sealevel;temperature;humidity
47330;BME280;33060;50.178;7.570;2023-02-24T00:01:39;96722.91;;;5.72;100.00
47330;BME280;33060;50.178;7.570;2023-02-24T00:04:10;96730.72;;;5.74;100.00
47330;BME280;33060;50.178;7.570;2023-02-24T00:06:40;96726.97;;;5.78;100.00
47330;BME280;33060;50.178;7.570;2023-02-24T00:09:12;96720.91;;;5.77;100.00
47330;BME280;33060;50.178;7.570;2023-02-24T00:11:43;96715.84;;;5.74;100.00
47330;BME280;33060;50.178;7.570;2023-02-24T00:14:13;96721.13;;;5.73;100.00
47330;BME280;33060;50.178;7.570;2023-02-24T00:16:45;96725.63;;;5.71;100.00
47330;BME280;33060;50.178;7.570;2023-02-24T00:19:15;96723.59;;;5.76;100.00
47330;BME280;33060;50.178;7.570;2023-02-24T00:21:43;96725.19;;;5.78;100.00
47330;BME280;33060;50.178;7.570;2023-02-24T00:24:10;96719.31;;;5.75;100.00
47330;BME280;33060;50.178;7.570;2023-02-24T00:26:37;96715.25;;;5.69;100.00
47330;BME280;33060;50.178;7.570;2023-02-24T00:29:07;96718.63;;;5.71;100.00
47330;BME280;33060;50.178;7.570;2023-02-24T00:31:34;96712.38;;;5.74;100.00
47330;BME280;33060;50.178;7.570;2023-02-24T00:34:05;96716.75;;;5.73;100.00
47330;BME280;33060;50.178;7.570;2023-02-24T00:36:32;96715.00;;;5.74;100.00
47330;BME280;33060;50.178;7.570;2023-02-24T00:39:04;96712.13;;;5.78;100.00
47330;BME280;33060;50.178;7.570;2023-02-24T00:41:41;96709.00;;;5.72;100.00
47330;BME280;33060;50.178;7.570;2023-02-24T00:44:11;96709.00;;;5.72;100.00
47330;BME280;33060;50.178;7.570;2023-02-24T00:46:43;96701.41;;;5.67;100.00
47330;BME280;33060;50.178;7.570;2023-02-24T00:49:15;96701.41;;;5.67;100.00
47330;BME280;33060;50.178;7.570;2023-02-24T00:51:47;96703.28;;;5.65;100.00
47330;BME280;33060;50.178;7.570;2023-02-24T00:54:15;96694.75;;;5.61;100.00
47330;BME280;33060;50.178;7.570;2023-02-24T00:56:44;96693.47;;;5.68;100.00
47330;BME280;33060;50.178;7.570;2023-02-24T00:59:13;96696.34;;;5.64;100.00
47330;BME280;33060;50.178;7.570;2023-02-24T01:01:41;96686.56;;;5.67;100.00
47330;BME280;33060;50.178;7.570;2023-02-24T01:04:10;96680.72;;;5.62;100.00
47330;BME280;33060;50.178;7.570;2023-02-24T01:06:40;96683.25;;;5.64;100.00
47330;BME280;33060;50.178;7.570;2023-02-24T01:09:10;96681.66;;;5.61;100.00
47330;BME280;33060;50.178;7.570;2023-02-24T01:11:38;96670.63;;;5.56;100.00
47330;BME280;33060;50.178;7.570;2023-02-24T01:14:28;96669.84;;;5.54;100.00
47330;BME280;33060;50.178;7.570;2023-02-24T01:16:55;96663.78;;;5.54;100.00
47330;BME280;33060;50.178;7.570;2023-02-24T01:19:27;96662.84;;;5.55;100.00
47330;BME280;33060;50.178;7.570;2023-02-24T01:22:02;96655.00;;;5.55;100.00
47330;BME280;33060;50.178;7.570;2023-02-24T01:24:37;96646.50;;;5.51;100.00
47330;BME280;33060;50.178;7.570;2023-02-24T01:27:05;96653.41;;;5.52;100.00
47330;BME280;33060;50.178;7.570;2023-02-24T01:29:34;96649.00;;;5.53;100.00
47330;BME280;33060;50.178;7.570;2023-02-24T01:32:08;96653.50;;;5.51;100.00
47330;BME280;33060;50.178;7.570;2023-02-24T01:34:39;96646.59;;;5.50;100.00
47330;BME280;33060;50.178;7.570;2023-02-24T01:37:08;96643.97;;;5.50;100.00
47330;BME280;33060;50.178;7.570;2023-02-24T01:39:35;96641.44;;;5.48;100.00
47330;BME280;33060;50.178;7.570;2023-02-24T01:42:03;96636.88;;;5.52;100.00
47330;BME280;33060;50.178;7.570;2023-02-24T01:46:58;96636.22;;;5.48;100.00
47330;BME280;33060;50.178;7.570;2023-02-24T01:49:39;96631.88;;;5.47;100.00
47330;BME280;33060;50.178;7.570;2023-02-24T01:52:22;96621.69;;;5.43;100.00
47330;BME280;33060;50.178;7.570;2023-02-24T01:54:56;96628.53;;;5.45;100.00
47330;BME280;33060;50.178;7.570;2023-02-24T01:57:28;96620.75;;;5.44;100.00
47330;BME280;33060;50.178;7.570;2023-02-24T01:59:57;96617.97;;;5.47;100.00
47330;BME280;33060;50.178;7.570;2023-02-24T02:02:42;96619.09;;;5.43;100.00
47330;BME280;33060;50.178;7.570;2023-02-24T02:05:10;96619.09;;;5.43;100.00
47330;BME280;33060;50.178;7.570;2023-02-24T02:07:38;96609.56;;;5.42;100.00
47330;BME280;33060;50.178;7.570;2023-02-24T02:10:08;96617.22;;;5.45;100.00
47330;BME280;33060;50.178;7.570;2023-02-24T02:12:37;96607.50;;;5.47;100.00
47330;BME280;33060;50.178;7.570;2023-02-24T02:15:17;96603.19;;;5.46;100.00
47330;BME280;33060;50.178;7.570;2023-02-24T02:17:58;96608.53;;;5.44;100.00
47330;BME280;33060;50.178;7.570;2023-02-24T02:40:03;96575.34;;;5.30;100.00
47330;BME280;33060;50.178;7.570;2023-02-24T02:45:30;96574.97;;;5.36;100.00
47330;BME280;33060;50.178;7.570;2023-02-24T02:50:48;96563.66;;;5.36;100.00
47330;BME280;33060;50.178;7.570;2023-02-24T02:53:29;96567.97;;;5.37;100.00
47330;BME280;33060;50.178;7.570;2023-02-24T02:56:11;96570.66;;;5.35;100.00
47330;BME280;33060;50.178;7.570;2023-02-24T02:58:46;96569.81;;;5.35;100.00
47330;BME280;33060;50.178;7.570;2023-02-24T03:01:16;96567.31;;;5.33;100.00
47330;BME280;33060;50.178;7.570;2023-02-24T03:03:51;96570.66;;;5.35;100.00
47330;BME280;33060;50.178;7.570;2023-02-24T03:06:28;96568.88;;;5.36;100.00
47330;BME280;33060;50.178;7.570;2023-02-24T03:11:26;96564.59;;;5.35;100.00
47330;BME280;33060;50.178;7.570;2023-02-24T03:13:55;96568.97;;;5.34;100.00
47330;BME280;33060;50.178;7.570;2023-02-24T03:16:25;96565.53;;;5.34;100.00
47330;BME280;33060;50.178;7.570;2023-02-24T03:18:58;96565.44;;;5.35;100.00
47330;BME280;33060;50.178;7.570;2023-02-24T03:21:42;96561.88;;;5.36;100.00
47330;BME280;33060;50.178;7.570;2023-02-24T03:24:12;96567.31;;;5.33;100.00
47330;BME280;33060;50.178;7.570;2023-02-24T03:26:51;96565.03;;;5.27;100.00
47330;BME280;33060;50.178;7.570;2023-02-24T03:30:01;96562.50;;;5.26;100.00
47330;BME280;33060;50.178;7.570;2023-02-24T03:33:04;96551.94;;;5.27;100.00
47330;BME280;33060;50.178;7.570;2023-02-24T03:35:38;96554.41;;;5.30;100.00
47330;BME280;33060;50.178;7.570;2023-02-24T03:38:05;96554.66;;;5.26;100.00
47330;BME280;33060;50.178;7.570;2023-02-24T03:40:32;96556.16;;;5.30;100.00
47330;BME280;33060;50.178;7.570;2023-02-24T03:43:14;96547.75;;;5.25;100.00
47330;BME280;33060;50.178;7.570;2023-02-24T03:45:43;96538.13;;;5.25;100.00
47330;BME280;33060;50.178;7.570;2023-02-24T03:48:11;96542.34;;;5.28;100.00
47330;BME280;33060;50.178;7.570;2023-02-24T03:50:40;96532.25;;;5.22;100.00
47330;BME280;33060;50.178;7.570;2023-02-24T03:56:27;96528.13;;;5.18;100.00
47330;BME280;33060;50.178;7.570;2023-02-24T03:59:01;96526.53;;;5.15;100.00
47330;BME280;33060;50.178;7.570;2023-02-24T04:01:40;96518.50;;;5.18;100.00
47330;BME280;33060;50.178;7.570;2023-02-24T04:04:13;96517.84;;;5.15;100.00
47330;BME280;33060;50.178;7.570;2023-02-24T04:06:59;96510.00;;;5.15;100.00
47330;BME280;33060;50.178;7.570;2023-02-24T04:12:21;96514.09;;;5.19;100.00
47330;BME280;33060;50.178;7.570;2023-02-24T04:15:04;96508.22;;;5.15;100.00
47330;BME280;33060;50.178;7.570;2023-02-24T04:17:43;96506.34;;;5.17;100.00
47330;BME280;33060;50.178;7.570;2023-02-24T04:20:16;96497.03;;;5.13;100.00
47330;BME280;33060;50.178;7.570;2023-02-24T04:22:56;96491.94;;;5.10;100.00
47330;BME280;33060;50.178;7.570;2023-02-24T04:25:25;96491.53;;;5.02;100.00
47330;BME280;33060;50.178;7.570;2023-02-24T04:27:56;96484.47;;;5.04;100.00
47330;BME280;33060;50.178;7.570;2023-02-24T04:30:27;96483.44;;;5.06;100.00
47330;BME280;33060;50.178;7.570;2023-02-24T04:32:55;96485.31;;;5.04;100.00
47330;BME280;33060;50.178;7.570;2023-02-24T04:35:24;96481.94;;;5.02;100.00
47330;BME280;33060;50.178;7.570;2023-02-24T04:37:54;96485.31;;;5.04;100.00
47330;BME280;33060;50.178;7.570;2023-02-24T04:40:22;96474.03;;;5.04;100.00
47330;BME280;33060;50.178;7.570;2023-02-24T04:42:50;96479.31;;;5.02;100.00
47330;BME280;33060;50.178;7.570;2023-02-24T04:45:21;96476.69;;;5.02;100.00
47330;BME280;33060;50.178;7.570;2023-02-24T04:47:50;96474.28;;;4.99;100.00
47330;BME280;33060;50.178;7.570;2023-02-24T04:50:20;96466.19;;;5.04;100.00
47330;BME280;33060;50.178;7.570;2023-02-24T04:52:55;96466.00;;;5.07;100.00
47330;BME280;33060;50.178;7.570;2023-02-24T04:55:24;96459.84;;;5.08;100.00
47330;BME280;33060;50.178;7.570;2023-02-24T04:57:55;96461.59;;;5.07;100.00
47330;BME280;33060;50.178;7.570;2023-02-24T05:00:22;96453.13;;;5.04;100.00
47330;BME280;33060;50.178;7.570;2023-02-24T05:02:54;96447.22;;;5.00;100.00
47330;BME280;33060;50.178;7.570;2023-02-24T05:05:23;96448.22;;;4.98;100.00
47330;BME280;33060;50.178;7.570;2023-02-24T05:07:57;96450.94;;;4.96;100.00
47330;BME280;33060;50.178;7.570;2023-02-24T05:13:04;96439.06;;;4.91;100.00
47330;BME280;33060;50.178;7.570;2023-02-24T05:15:38;96442.50;;;4.91;100.00
47330;BME280;33060;50.178;7.570;2023-02-24T05:18:07;96435.50;;;4.92;100.00
47330;BME280;33060;50.178;7.570;2023-02-24T05:20:36;96433.50;;;4.97;100.00
47330;BME280;33060;50.178;7.570;2023-02-24T05:23:29;96425.47;;;5.00;100.00
47330;BME280;33060;50.178;7.570;2023-02-24T05:26:01;96424.13;;;4.93;100.00
47330;BME280;33060;50.178;7.570;2023-02-24T05:28:28;96426.38;;;4.99;100.00
47330;BME280;33060;50.178;7.570;2023-02-24T05:31:24;96432.47;;;4.99;100.00
47330;BME280;33060;50.178;7.570;2023-02-24T05:34:11;96424.53;;;5.01;100.00
47330;BME280;33060;50.178;7.570;2023-02-24T05:36:42;96426.28;;;5.00;100.00
47330;BME280;33060;50.178;7.570;2023-02-24T05:39:11;96420.31;;;4.98;100.00
47330;BME280;33060;50.178;7.570;2023-02-24T05:41:46;96411.81;;;4.95;100.00
47330;BME280;33060;50.178;7.570;2023-02-24T05:44:16;96411.34;;;4.88;100.00
47330;BME280;33060;50.178;7.570;2023-02-24T05:46:50;96400.31;;;4.83;100.00
47330;BME280;33060;50.178;7.570;2023-02-24T05:49:21;96412.81;;;4.78;100.00
47330;BME280;33060;50.178;7.570;2023-02-24T05:51:50;96413.91;;;4.74;100.00
47330;BME280;33060;50.178;7.570;2023-02-24T05:54:23;96407.75;;;4.75;100.00
47330;BME280;33060;50.178;7.570;2023-02-24T05:56:51;96401.47;;;4.77;100.00
47330;BME280;33060;50.178;7.570;2023-02-24T05:59:17;96402.25;;;4.79;100.00
47330;BME280;33060;50.178;7.570;2023-02-24T06:01:47;96397.13;;;4.78;100.00
47330;BME280;33060;50.178;7.570;2023-02-24T06:04:15;96398.03;;;4.77;100.00
47330;BME280;33060;50.178;7.570;2023-02-24T06:07:10;96397.19;;;4.76;100.00
47330;BME280;33060;50.178;7.570;2023-02-24T06:09:40;96405.13;;;4.75;100.00
47330;BME280;33060;50.178;7.570;2023-02-24T06:12:11;96408.75;;;4.72;100.00
47330;BME280;33060;50.178;7.570;2023-02-24T06:14:40;96409.31;;;4.77;100.00
47330;BME280;33060;50.178;7.570;2023-02-24T06:17:07;96405.81;;;4.78;100.00
47330;BME280;33060;50.178;7.570;2023-02-24T06:19:34;96405.63;;;4.81;100.00
47330;BME280;33060;50.178;7.570;2023-02-24T06:22:01;96403.00;;;4.81;100.00
47330;BME280;33060;50.178;7.570;2023-02-24T06:24:30;96398.44;;;4.85;100.00
47330;BME280;33060;50.178;7.570;2023-02-24T06:26:58;96400.97;;;4.87;100.00
47330;BME280;33060;50.178;7.570;2023-02-24T06:29:36;96400.06;;;4.88;100.00
47330;BME280;33060;50.178;7.570;2023-02-24T06:32:03;96407.88;;;4.88;100.00
47330;BME280;33060;50.178;7.570;2023-02-24T06:34:35;96406.94;;;4.89;100.00
47330;BME280;33060;50.178;7.570;2023-02-24T06:37:03;96412.94;;;4.91;100.00
47330;BME280;33060;50.178;7.570;2023-02-24T06:39:30;96402.56;;;4.89;100.00
47330;BME280;33060;50.178;7.570;2023-02-24T06:42:03;96394.81;;;4.88;100.00
47330;BME280;33060;50.178;7.570;2023-02-24T06:44:31;96394.81;;;4.88;100.00
47330;BME280;33060;50.178;7.570;2023-02-24T06:46:59;96388.75;;;4.87;100.00
47330;BME280;33060;50.178;7.570;2023-02-24T06:49:26;96395.28;;;4.94;100.00
47330;BME280;33060;50.178;7.570;2023-02-24T06:51:54;96397.00;;;4.95;100.00
47330;BME280;33060;50.178;7.570;2023-02-24T06:54:21;96405.69;;;4.96;100.00
47330;BME280;33060;50.178;7.570;2023-02-24T06:56:48;96400.34;;;4.97;100.00
47330;BME280;33060;50.178;7.570;2023-02-24T06:59:15;96391.69;;;4.97;100.00
47330;BME280;33060;50.178;7.570;2023-02-24T07:01:47;96394.00;;;5.01;100.00
47330;BME280;33060;50.178;7.570;2023-02-24T07:04:15;96392.06;;;5.05;100.00
47330;BME280;33060;50.178;7.570;2023-02-24T07:06:45;96386.66;;;5.08;100.00
47330;BME280;33060;50.178;7.570;2023-02-24T07:09:15;96390.00;;;5.10;100.00
47330;BME280;33060;50.178;7.570;2023-02-24T07:11:43;96389.75;;;5.15;100.00
47330;BME280;33060;50.178;7.570;2023-02-24T07:14:22;96383.69;;;5.14;100.00
47330;BME280;33060;50.178;7.570;2023-02-24T07:16:50;96382.91;;;5.12;100.00
47330;BME280;33060;50.178;7.570;2023-02-24T07:19:24;96383.50;;;5.17;100.00
47330;BME280;33060;50.178;7.570;2023-02-24T07:21:54;96373.03;;;5.17;100.00
47330;BME280;33060;50.178;7.570;2023-02-24T07:24:27;96374.56;;;5.21;100.00
47330;BME280;33060;50.178;7.570;2023-02-24T07:27:09;96370.06;;;5.23;100.00
47330;BME280;33060;50.178;7.570;2023-02-24T07:29:37;96376.88;;;5.26;100.00
47330;BME280;33060;50.178;7.570;2023-02-24T07:32:06;96374.91;;;5.29;100.00
47330;BME280;33060;50.178;7.570;2023-02-24T07:34:34;96368.94;;;5.27;100.00
47330;BME280;33060;50.178;7.570;2023-02-24T07:37:05;96366.59;;;5.23;100.00
47330;BME280;33060;50.178;7.570;2023-02-24T07:39:35;96371.94;;;5.21;100.00
47330;BME280;33060;50.178;7.570;2023-02-24T07:42:03;96371.63;;;5.11;100.00
47330;BME280;33060;50.178;7.570;2023-02-24T07:44:37;96367.41;;;5.09;100.00
47330;BME280;33060;50.178;7.570;2023-02-24T07:47:04;96370.78;;;5.11;100.00
47330;BME280;33060;50.178;7.570;2023-02-24T07:49:33;96363.78;;;5.11;100.00
47330;BME280;33060;50.178;7.570;2023-02-24T07:52:00;96359.78;;;5.20;100.00
47330;BME280;33060;50.178;7.570;2023-02-24T07:54:27;96361.38;;;5.37;99.91
47330;BME280;33060;50.178;7.570;2023-02-24T07:56:56;96359.44;;;5.41;100.00
47330;BME280;33060;50.178;7.570;2023-02-24T07:59:30;96347.56;;;5.49;98.65
47330;BME280;33060;50.178;7.570;2023-02-24T08:01:58;96353.63;;;5.50;98.11
47330;BME280;33060;50.178;7.570;2023-02-24T08:04:27;96342.13;;;5.52;99.42
47330;BME280;33060;50.178;7.570;2023-02-24T08:06:56;96347.84;;;5.59;98.70
47330;BME280;33060;50.178;7.570;2023-02-24T08:09:29;96345.38;;;5.56;96.79
47330;BME280;33060;50.178;7.570;2023-02-24T08:12:18;96343.56;;;5.58;97.40
47330;BME280;33060;50.178;7.570;2023-02-24T08:14:50;96347.09;;;5.57;96.79
47330;BME280;33060;50.178;7.570;2023-02-24T08:17:24;96345.59;;;5.67;95.68
47330;BME280;33060;50.178;7.570;2023-02-24T08:19:53;96347.16;;;5.84;94.80
47330;BME280;33060;50.178;7.570;2023-02-24T08:22:48;96348.75;;;5.86;94.11
47330;BME280;33060;50.178;7.570;2023-02-24T08:25:25;96342.50;;;5.75;94.21
47330;BME280;33060;50.178;7.570;2023-02-24T08:28:03;96341.03;;;5.56;94.51
47330;BME280;33060;50.178;7.570;2023-02-24T08:30:39;96336.16;;;5.50;94.71
47330;BME280;33060;50.178;7.570;2023-02-24T08:33:08;96332.97;;;5.45;94.61
47330;BME280;33060;50.178;7.570;2023-02-24T08:35:37;96324.97;;;5.48;94.77
47330;BME280;33060;50.178;7.570;2023-02-24T08:38:08;96315.03;;;5.67;95.09
47330;BME280;33060;50.178;7.570;2023-02-24T08:40:37;96324.63;;;5.81;93.10
47330;BME280;33060;50.178;7.570;2023-02-24T08:43:20;96322.38;;;5.89;92.09
47330;BME280;33060;50.178;7.570;2023-02-24T08:46:02;96314.16;;;5.95;92.23
47330;BME280;33060;50.178;7.570;2023-02-24T08:48:39;96308.31;;;6.19;91.07
47330;BME280;33060;50.178;7.570;2023-02-24T08:51:11;96304.16;;;6.29;89.85
47330;BME280;33060;50.178;7.570;2023-02-24T08:53:43;96299.50;;;6.60;88.01
47330;BME280;33060;50.178;7.570;2023-02-24T08:56:13;96300.88;;;6.65;88.22
47330;BME280;33060;50.178;7.570;2023-02-24T08:58:55;96297.13;;;6.82;87.57
47330;BME280;33060;50.178;7.570;2023-02-24T09:01:36;96298.63;;;6.99;86.20
47330;BME280;33060;50.178;7.570;2023-02-24T09:04:11;96284.59;;;7.13;86.18
47330;BME280;33060;50.178;7.570;2023-02-24T09:06:48;96290.97;;;6.96;85.12
47330;BME280;33060;50.178;7.570;2023-02-24T09:09:18;96285.78;;;6.69;86.75
47330;BME280;33060;50.178;7.570;2023-02-24T09:11:57;96281.81;;;6.63;87.70
47330;BME280;33060;50.178;7.570;2023-02-24T09:14:29;96288.72;;;6.51;88.48
47330;BME280;33060;50.178;7.570;2023-02-24T09:17:04;96280.94;;;6.50;89.62
47330;BME280;33060;50.178;7.570;2023-02-24T09:19:42;96277.91;;;6.69;88.08
47330;BME280;33060;50.178;7.570;2023-02-24T09:22:17;96272.19;;;6.89;86.31
47330;BME280;33060;50.178;7.570;2023-02-24T09:25:12;96263.28;;;6.79;85.29
47330;BME280;33060;50.178;7.570;2023-02-24T09:27:50;96270.91;;;6.95;84.70
47330;BME280;33060;50.178;7.570;2023-02-24T09:30:25;96263.78;;;7.09;83.49
47330;BME280;33060;50.178;7.570;2023-02-24T09:33:28;96253.41;;;7.21;82.97
47330;BME280;33060;50.178;7.570;2023-02-24T09:35:58;96256.88;;;7.21;82.58
47330;BME280;33060;50.178;7.570;2023-02-24T09:38:48;96252.03;;;7.41;81.29
47330;BME280;33060;50.178;7.570;2023-02-24T09:41:43;96245.09;;;7.40;78.98
47330;BME280;33060;50.178;7.570;2023-02-24T09:44:31;96243.63;;;7.48;77.66
47330;BME280;33060;50.178;7.570;2023-02-24T09:50:02;96238.63;;;7.69;77.88
47330;BME280;33060;50.178;7.570;2023-02-24T09:52:30;96231.63;;;7.57;78.11
47330;BME280;33060;50.178;7.570;2023-02-24T09:58:04;96228.03;;;7.94;75.31
47330;BME280;33060;50.178;7.570;2023-02-24T10:00:57;96210.97;;;8.59;73.66
47330;BME280;33060;50.178;7.570;2023-02-24T10:06:24;96195.94;;;8.72;72.79
47330;BME280;33060;50.178;7.570;2023-02-24T10:08:59;96199.75;;;8.68;73.10
47330;BME280;33060;50.178;7.570;2023-02-24T10:11:42;96198.63;;;8.95;72.71
47330;BME280;33060;50.178;7.570;2023-02-24T10:14:35;96198.84;;;9.25;70.61
47330;BME280;33060;50.178;7.570;2023-02-24T10:17:18;96192.09;;;9.55;69.21
47330;BME280;33060;50.178;7.570;2023-02-24T10:20:33;96176.63;;;9.84;69.00
47330;BME280;33060;50.178;7.570;2023-02-24T10:22:43;96178.94;;;9.55;69.62
47330;BME280;33060;50.178;7.570;2023-02-24T10:25:42;96176.50;;;9.09;70.16
47330;BME280;33060;50.178;7.570;2023-02-24T10:28:45;96167.03;;;8.72;71.87
47330;BME280;33060;50.178;7.570;2023-02-24T10:31:27;96168.06;;;8.59;72.23
47330;BME280;33060;50.178;7.570;2023-02-24T10:34:00;96163.91;;;8.67;71.10
47330;BME280;33060;50.178;7.570;2023-02-24T10:36:31;96155.09;;;8.80;70.63
47330;BME280;33060;50.178;7.570;2023-02-24T10:39:15;96158.44;;;8.82;71.10
47330;BME280;33060;50.178;7.570;2023-02-24T10:41:47;96146.63;;;8.87;70.86
47330;BME280;33060;50.178;7.570;2023-02-24T10:44:22;96143.03;;;8.99;69.60
47330;BME280;33060;50.178;7.570;2023-02-24T10:47:01;96141.78;;;9.37;68.81
47330;BME280;33060;50.178;7.570;2023-02-24T10:49:44;96143.03;;;9.97;66.42
47330;BME280;33060;50.178;7.570;2023-02-24T10:52:37;96132.00;;;10.35;65.08
47330;BME280;33060;50.178;7.570;2023-02-24T11:00:46;96142.09;;;9.55;67.98
47330;BME280;33060;50.178;7.570;2023-02-24T11:03:33;96138.06;;;9.28;67.56
47330;BME280;33060;50.178;7.570;2023-02-24T11:06:21;96131.84;;;9.29;68.83
47330;BME280;33060;50.178;7.570;2023-02-24T11:09:15;96126.38;;;9.21;70.19
47330;BME280;33060;50.178;7.570;2023-02-24T11:12:11;96119.84;;;9.04;70.47
47330;BME280;33060;50.178;7.570;2023-02-24T11:15:21;96103.66;;;9.09;69.66
47330;BME280;33060;50.178;7.570;2023-02-24T11:18:20;96107.72;;;9.24;68.53
47330;BME280;33060;50.178;7.570;2023-02-24T11:21:14;96103.97;;;9.49;68.52
47330;BME280;33060;50.178;7.570;2023-02-24T11:23:48;96102.06;;;9.72;69.15
47330;BME280;33060;50.178;7.570;2023-02-24T11:26:34;96090.28;;;9.87;67.50
47330;BME280;33060;50.178;7.570;2023-02-24T11:32:17;96075.88;;;9.71;67.36
47330;BME280;33060;50.178;7.570;2023-02-24T11:35:12;96068.16;;;9.47;65.97
47330;BME280;33060;50.178;7.570;2023-02-24T11:38:06;96070.97;;;9.34;68.59
47330;BME280;33060;50.178;7.570;2023-02-24T11:40:40;96064.97;;;9.43;68.06
47330;BME280;33060;50.178;7.570;2023-02-24T11:43:18;96055.88;;;9.36;66.93
47330;BME280;33060;50.178;7.570;2023-02-24T11:45:50;96056.97;;;9.33;67.72
47330;BME280;33060;50.178;7.570;2023-02-24T11:48:26;96046.41;;;9.45;66.74
47330;BME280;33060;50.178;7.570;2023-02-24T11:53:50;96038.16;;;9.70;67.01
47330;BME280;33060;50.178;7.570;2023-02-24T11:56:44;96043.50;;;9.59;65.84
47330;BME280;33060;50.178;7.570;2023-02-24T11:59:17;96032.34;;;9.67;66.24
47330;BME280;33060;50.178;7.570;2023-02-24T12:01:58;96035.25;;;9.52;65.46
47330;BME280;33060;50.178;7.570;2023-02-24T12:04:41;96024.09;;;9.39;65.65
47330;BME280;33060;50.178;7.570;2023-02-24T12:10:17;96020.41;;;9.19;67.56
47330;BME280;33060;50.178;7.570;2023-02-24T12:15:37;96002.19;;;9.06;66.83
47330;BME280;33060;50.178;7.570;2023-02-24T12:18:24;96003.16;;;8.94;66.35
47330;BME280;33060;50.178;7.570;2023-02-24T12:20:59;96004.53;;;8.77;67.57
47330;BME280;33060;50.178;7.570;2023-02-24T12:23:33;95995.41;;;8.82;66.89
47330;BME280;33060;50.178;7.570;2023-02-24T12:34:19;95988.47;;;8.92;64.55
47330;BME280;33060;50.178;7.570;2023-02-24T12:42:10;95977.72;;;8.84;65.31
47330;BME280;33060;50.178;7.570;2023-02-24T12:45:42;95983.03;;;8.61;65.99
47330;BME280;33060;50.178;7.570;2023-02-24T12:53:07;95968.94;;;8.62;65.31
47330;BME280;33060;50.178;7.570;2023-02-24T12:58:42;95966.44;;;8.38;63.64
47330;BME280;33060;50.178;7.570;2023-02-24T13:01:16;95955.69;;;8.41;64.12
47330;BME280;33060;50.178;7.570;2023-02-24T13:04:53;95955.34;;;8.35;62.97
47330;BME280;33060;50.178;7.570;2023-02-24T13:12:33;95951.00;;;8.22;60.08
47330;BME280;33060;50.178;7.570;2023-02-24T13:15:05;95944.34;;;8.18;58.46
47330;BME280;33060;50.178;7.570;2023-02-24T13:17:32;95939.19;;;8.28;57.46
47330;BME280;33060;50.178;7.570;2023-02-24T13:20:09;95946.13;;;8.29;56.91
47330;BME280;33060;50.178;7.570;2023-02-24T13:22:40;95938.84;;;8.21;56.79
47330;BME280;33060;50.178;7.570;2023-02-24T13:27:36;95934.44;;;8.11;55.29
47330;BME280;33060;50.178;7.570;2023-02-24T13:32:43;95933.84;;;7.96;55.54
47330;BME280;33060;50.178;7.570;2023-02-24T13:37:42;95928.44;;;7.64;57.22
47330;BME280;33060;50.178;7.570;2023-02-24T13:45:38;95904.97;;;7.74;56.70
47330;BME280;33060;50.178;7.570;2023-02-24T13:55:07;95895.41;;;7.95;55.98
47330;BME280;33060;50.178;7.570;2023-02-24T13:58:08;95900.16;;;7.90;56.50
47330;BME280;33060;50.178;7.570;2023-02-24T14:01:04;95887.66;;;7.93;56.65
47330;BME280;33060;50.178;7.570;2023-02-24T14:03:33;95888.59;;;7.81;56.27
47330;BME280;33060;50.178;7.570;2023-02-24T14:06:02;95885.75;;;7.96;55.30
47330;BME280;33060;50.178;7.570;2023-02-24T14:08:47;95886.69;;;7.94;56.29
47330;BME280;33060;50.178;7.570;2023-02-24T14:11:16;95882.16;;;7.85;55.43
47330;BME280;33060;50.178;7.570;2023-02-24T14:13:51;95882.19;;;7.74;56.07
47330;BME280;33060;50.178;7.570;2023-02-24T14:16:22;95869.63;;;7.67;56.87
47330;BME280;33060;50.178;7.570;2023-02-24T14:18:55;95880.84;;;7.57;57.04
47330;BME280;33060;50.178;7.570;2023-02-24T14:21:25;95877.97;;;7.49;57.57
47330;BME280;33060;50.178;7.570;2023-02-24T14:26:24;95872.22;;;7.44;57.59
47330;BME280;33060;50.178;7.570;2023-02-24T14:28:55;95873.06;;;7.33;58.33
47330;BME280;33060;50.178;7.570;2023-02-24T14:31:23;95866.22;;;7.20;57.79
47330;BME280;33060;50.178;7.570;2023-02-24T14:34:02;95863.03;;;7.27;58.25
47330;BME280;33060;50.178;7.570;2023-02-24T14:36:32;95867.56;;;7.25;58.99
47330;BME280;33060;50.178;7.570;2023-02-24T14:41:35;95861.78;;;7.09;59.47
47330;BME280;33060;50.178;7.570;2023-02-24T14:44:19;95861.91;;;7.07;59.82
47330;BME280;33060;50.178;7.570;2023-02-24T14:46:51;95851.19;;;7.11;59.07
47330;BME280;33060;50.178;7.570;2023-02-24T14:49:21;95851.19;;;7.11;60.06
47330;BME280;33060;50.178;7.570;2023-02-24T14:52:03;95856.16;;;7.02;60.58
47330;BME280;33060;50.178;7.570;2023-02-24T14:54:52;95849.38;;;7.00;60.76
47330;BME280;33060;50.178;7.570;2023-02-24T14:57:25;95843.53;;;6.96;61.11
47330;BME280;33060;50.178;7.570;2023-02-24T15:00:00;95847.44;;;6.91;59.26
47330;BME280;33060;50.178;7.570;2023-02-24T15:02:40;95840.78;;;6.87;58.94
47330;BME280;33060;50.178;7.570;2023-02-24T15:05:10;95840.16;;;6.83;59.08
47330;BME280;33060;50.178;7.570;2023-02-24T15:07:37;95830.50;;;6.84;59.36
47330;BME280;33060;50.178;7.570;2023-02-24T15:10:05;95840.97;;;6.72;59.32
47330;BME280;33060;50.178;7.570;2023-02-24T15:12:43;95833.81;;;6.74;59.71
47330;BME280;33060;50.178;7.570;2023-02-24T15:15:33;95837.84;;;6.67;60.15
47330;BME280;33060;50.178;7.570;2023-02-24T15:18:11;95832.72;;;6.66;59.99
47330;BME280;33060;50.178;7.570;2023-02-24T15:20:40;95837.91;;;6.55;61.34
47330;BME280;33060;50.178;7.570;2023-02-24T15:23:46;95839.19;;;6.49;61.02
47330;BME280;33060;50.178;7.570;2023-02-24T15:26:28;95830.34;;;6.39;61.34
47330;BME280;33060;50.178;7.570;2023-02-24T15:28:57;95826.44;;;6.44;61.19
47330;BME280;33060;50.178;7.570;2023-02-24T15:31:24;95821.88;;;6.35;60.96
47330;BME280;33060;50.178;7.570;2023-02-24T15:33:58;95833.88;;;6.27;60.52
47330;BME280;33060;50.178;7.570;2023-02-24T15:36:32;95829.91;;;6.21;59.68
47330;BME280;33060;50.178;7.570;2023-02-24T15:39:05;95830.34;;;6.15;60.84
47330;BME280;33060;50.178;7.570;2023-02-24T15:41:42;95828.09;;;5.98;63.95
47330;BME280;33060;50.178;7.570;2023-02-24T15:44:30;95841.13;;;5.74;64.68